sensor_id;sensor_type;location;lat;lon;timestamp;temperature;humidity
77519;DHT22;66629;47.346;19.038;2023-03-16T00:01:56;3.46;58.41
77519;DHT22;66629;47.346;19.038;2023-03-16T00:04:21;3.38;58.28
77519;DHT22;66629;47.346;19.038;2023-03-16T00:06:47;3.36;58.20
77519;DHT22;66629;47.346;19.038;2023-03-16T00:09:12;3.32;58.13
77519;DHT22;66629;47.346;19.038;2023-03-16T00:11:37;3.28;58.45
77519;DHT22;66629;47.346;19.038;2023-03-16T00:14:03;3.23;58.60
77519;DHT22;66629;47.346;19.038;2023-03-16T00:16:29;3.16;59.18
77519;DHT22;66629;47.346;19.038;2023-03-16T00:18:54;3.11;58.96
77519;DHT22;66629;47.346;19.038;2023-03-16T00:21:20;3.09;59.30
77519;DHT22;66629;47.346;19.038;2023-03-16T00:23:45;3.05;59.44
77519;DHT22;66629;47.346;19.038;2023-03-16T00:26:11;3.03;59.20
77519;DHT22;66629;47.346;19.038;2023-03-16T00:28:38;3.00;58.92
77519;DHT22;66629;47.346;19.038;2023-03-16T00:31:05;3.03;58.85
77519;DHT22;66629;47.346;19.038;2023-03-16T00:33:31;3.00;59.15
77519;DHT22;66629;47.346;19.038;2023-03-16T00:36:03;2.98;59.19
77519;DHT22;66629;47.346;19.038;2023-03-16T00:38:32;2.98;58.99
77519;DHT22;66629;47.346;19.038;2023-03-16T00:40:59;3.01;58.70
77519;DHT22;66629;47.346;19.038;2023-03-16T00:43:24;3.03;58.34
77519;DHT22;66629;47.346;19.038;2023-03-16T00:45:59;3.00;59.01
77519;DHT22;66629;47.346;19.038;2023-03-16T00:48:31;2.95;58.97
77519;DHT22;66629;47.346;19.038;2023-03-16T00:51:00;2.94;59.26
77519;DHT22;66629;47.346;19.038;2023-03-16T00:53:25;2.91;59.36
77519;DHT22;66629;47.346;19.038;2023-03-16T00:55:50;2.88;59.14
77519;DHT22;66629;47.346;19.038;2023-03-16T00:58:17;2.87;59.43
77519;DHT22;66629;47.346;19.038;2023-03-16T01:00:44;2.81;59.72
77519;DHT22;66629;47.346;19.038;2023-03-16T01:03:11;2.75;60.28
77519;DHT22;66629;47.346;19.038;2023-03-16T01:05:40;2.67;60.59
77519;DHT22;66629;47.346;19.038;2023-03-16T01:08:06;2.53;61.03
77519;DHT22;66629;47.346;19.038;2023-03-16T01:10:35;2.46;61.84
77519;DHT22;66629;47.346;19.038;2023-03-16T01:13:01;2.35;61.93
77519;DHT22;66629;47.346;19.038;2023-03-16T01:15:31;2.32;62.56
77519;DHT22;66629;47.346;19.038;2023-03-16T01:17:57;2.27;62.55
77519;DHT22;66629;47.346;19.038;2023-03-16T01:20:22;2.21;62.48
77519;DHT22;66629;47.346;19.038;2023-03-16T01:22:48;2.17;62.83
77519;DHT22;66629;47.346;19.038;2023-03-16T01:25:13;2.09;62.91
77519;DHT22;66629;47.346;19.038;2023-03-16T01:27:39;2.06;63.35
77519;DHT22;66629;47.346;19.038;2023-03-16T01:30:05;2.00;63.51
77519;DHT22;66629;47.346;19.038;2023-03-16T01:32:31;1.99;62.96
77519;DHT22;66629;47.346;19.038;2023-03-16T01:34:56;1.97;63.22
77519;DHT22;66629;47.346;19.038;2023-03-16T01:37:22;1.90;63.47
77519;DHT22;66629;47.346;19.038;2023-03-16T01:39:48;1.87;63.90
77519;DHT22;66629;47.346;19.038;2023-03-16T01:42:14;1.83;63.99
77519;DHT22;66629;47.346;19.038;2023-03-16T01:44:51;1.83;64.00
77519;DHT22;66629;47.346;19.038;2023-03-16T01:47:19;1.80;64.11
77519;DHT22;66629;47.346;19.038;2023-03-16T01:49:45;1.78;63.98
77519;DHT22;66629;47.346;19.038;2023-03-16T01:52:33;1.78;64.17
77519;DHT22;66629;47.346;19.038;2023-03-16T01:55:03;1.76;64.39
77519;DHT22;66629;47.346;19.038;2023-03-16T01:57:33;1.72;64.41
77519;DHT22;66629;47.346;19.038;2023-03-16T02:00:07;1.75;64.29
77519;DHT22;66629;47.346;19.038;2023-03-16T02:02:45;1.69;64.58
77519;DHT22;66629;47.346;19.038;2023-03-16T02:05:19;1.66;64.74
77519;DHT22;66629;47.346;19.038;2023-03-16T02:07:48;1.63;64.66
77519;DHT22;66629;47.346;19.038;2023-03-16T02:10:17;1.63;64.71
77519;DHT22;66629;47.346;19.038;2023-03-16T02:12:44;1.55;65.26
77519;DHT22;66629;47.346;19.038;2023-03-16T02:15:11;1.54;65.20
77519;DHT22;66629;47.346;19.038;2023-03-16T02:17:38;1.50;65.26
77519;DHT22;66629;47.346;19.038;2023-03-16T02:22:57;1.47;65.50
77519;DHT22;66629;47.346;19.038;2023-03-16T02:25:34;1.41;65.45
77519;DHT22;66629;47.346;19.038;2023-03-16T02:28:34;1.40;65.56
77519;DHT22;66629;47.346;19.038;2023-03-16T02:31:03;1.38;65.87
77519;DHT22;66629;47.346;19.038;2023-03-16T02:33:29;1.35;65.66
77519;DHT22;66629;47.346;19.038;2023-03-16T02:35:56;1.30;66.46
77519;DHT22;66629;47.346;19.038;2023-03-16T02:38:22;1.28;66.36
77519;DHT22;66629;47.346;19.038;2023-03-16T02:40:56;1.23;66.32
77519;DHT22;66629;47.346;19.038;2023-03-16T02:43:30;1.19;66.13
77519;DHT22;66629;47.346;19.038;2023-03-16T02:45:59;1.13;66.19
77519;DHT22;66629;47.346;19.038;2023-03-16T02:48:32;1.12;66.86
77519;DHT22;66629;47.346;19.038;2023-03-16T02:50:59;1.12;66.41
77519;DHT22;66629;47.346;19.038;2023-03-16T02:53:25;1.10;66.72
77519;DHT22;66629;47.346;19.038;2023-03-16T02:55:51;1.19;66.73
77519;DHT22;66629;47.346;19.038;2023-03-16T02:58:16;1.20;66.75
77519;DHT22;66629;47.346;19.038;2023-03-16T03:00:42;1.19;66.75
77519;DHT22;66629;47.346;19.038;2023-03-16T03:03:10;1.19;66.25
77519;DHT22;66629;47.346;19.038;2023-03-16T03:05:36;1.17;66.42
77519;DHT22;66629;47.346;19.038;2023-03-16T03:08:02;1.17;66.65
77519;DHT22;66629;47.346;19.038;2023-03-16T03:10:28;1.16;66.50
77519;DHT22;66629;47.346;19.038;2023-03-16T03:12:53;1.15;66.66
77519;DHT22;66629;47.346;19.038;2023-03-16T03:15:18;1.09;67.65
77519;DHT22;66629;47.346;19.038;2023-03-16T03:17:45;1.02;67.65
77519;DHT22;66629;47.346;19.038;2023-03-16T03:20:11;0.92;68.22
77519;DHT22;66629;47.346;19.038;2023-03-16T03:22:45;0.88;68.07
77519;DHT22;66629;47.346;19.038;2023-03-16T03:25:12;0.91;67.93
77519;DHT22;66629;47.346;19.038;2023-03-16T03:27:39;0.92;67.79
77519;DHT22;66629;47.346;19.038;2023-03-16T03:30:08;0.97;67.43
77519;DHT22;66629;47.346;19.038;2023-03-16T03:32:34;0.93;68.02
77519;DHT22;66629;47.346;19.038;2023-03-16T03:34:59;0.93;67.95
77519;DHT22;66629;47.346;19.038;2023-03-16T03:37:25;0.88;68.63
77519;DHT22;66629;47.346;19.038;2023-03-16T03:39:50;0.86;68.62
77519;DHT22;66629;47.346;19.038;2023-03-16T03:42:17;0.82;68.66
77519;DHT22;66629;47.346;19.038;2023-03-16T03:44:43;0.88;68.83
77519;DHT22;66629;47.346;19.038;2023-03-16T03:47:08;0.86;68.75
77519;DHT22;66629;47.346;19.038;2023-03-16T03:49:34;0.88;68.76
77519;DHT22;66629;47.346;19.038;2023-03-16T03:51:59;0.91;68.84
77519;DHT22;66629;47.346;19.038;2023-03-16T03:54:29;0.91;68.93
77519;DHT22;66629;47.346;19.038;2023-03-16T03:56:54;0.93;68.80
77519;DHT22;66629;47.346;19.038;2023-03-16T03:59:20;0.96;68.87
77519;DHT22;66629;47.346;19.038;2023-03-16T04:01:46;0.92;68.82
77519;DHT22;66629;47.346;19.038;2023-03-16T04:04:13;0.97;69.05
77519;DHT22;66629;47.346;19.038;2023-03-16T04:06:39;0.96;69.05
77519;DHT22;66629;47.346;19.038;2023-03-16T04:09:06;0.95;68.99
77519;DHT22;66629;47.346;19.038;2023-03-16T04:11:31;0.92;69.45
77519;DHT22;66629;47.346;19.038;2023-03-16T04:13:57;0.91;69.31
77519;DHT22;66629;47.346;19.038;2023-03-16T04:16:22;0.89;69.03
77519;DHT22;66629;47.346;19.038;2023-03-16T04:18:52;0.92;68.85
77519;DHT22;66629;47.346;19.038;2023-03-16T04:21:19;0.91;68.94
77519;DHT22;66629;47.346;19.038;2023-03-16T04:23:45;0.88;68.94
77519;DHT22;66629;47.346;19.038;2023-03-16T04:26:11;0.88;69.32
77519;DHT22;66629;47.346;19.038;2023-03-16T04:28:37;0.84;69.32
77519;DHT22;66629;47.346;19.038;2023-03-16T04:31:08;0.79;69.76
77519;DHT22;66629;47.346;19.038;2023-03-16T04:33:34;0.76;69.52
77519;DHT22;66629;47.346;19.038;2023-03-16T04:36:01;0.76;69.72
77519;DHT22;66629;47.346;19.038;2023-03-16T04:38:28;0.72;69.83
77519;DHT22;66629;47.346;19.038;2023-03-16T04:40:53;0.72;70.07
77519;DHT22;66629;47.346;19.038;2023-03-16T04:43:19;0.69;70.08
77519;DHT22;66629;47.346;19.038;2023-03-16T04:45:44;0.62;70.36
77519;DHT22;66629;47.346;19.038;2023-03-16T04:48:10;0.60;70.57
77519;DHT22;66629;47.346;19.038;2023-03-16T04:50:36;0.57;70.86
77519;DHT22;66629;47.346;19.038;2023-03-16T04:53:01;0.54;70.84
77519;DHT22;66629;47.346;19.038;2023-03-16T04:55:29;0.56;71.01
77519;DHT22;66629;47.346;19.038;2023-03-16T04:57:55;0.54;71.01
77519;DHT22;66629;47.346;19.038;2023-03-16T05:00:21;0.51;71.01
77519;DHT22;66629;47.346;19.038;2023-03-16T05:02:48;0.53;71.22
77519;DHT22;66629;47.346;19.038;2023-03-16T05:05:14;0.50;71.44
77519;DHT22;66629;47.346;19.038;2023-03-16T05:07:41;0.49;71.57
77519;DHT22;66629;47.346;19.038;2023-03-16T05:10:11;0.46;71.33
77519;DHT22;66629;47.346;19.038;2023-03-16T05:12:37;0.43;71.49
77519;DHT22;66629;47.346;19.038;2023-03-16T05:15:03;0.39;71.73
77519;DHT22;66629;47.346;19.038;2023-03-16T05:17:29;0.39;71.53
77519;DHT22;66629;47.346;19.038;2023-03-16T05:19:54;0.49;71.90
77519;DHT22;66629;47.346;19.038;2023-03-16T05:22:19;0.71;71.04
77519;DHT22;66629;47.346;19.038;2023-03-16T05:24:45;0.82;70.73
77519;DHT22;66629;47.346;19.038;2023-03-16T05:27:10;0.99;70.19
77519;DHT22;66629;47.346;19.038;2023-03-16T05:29:36;1.19;69.79
77519;DHT22;66629;47.346;19.038;2023-03-16T05:32:01;1.30;69.13
77519;DHT22;66629;47.346;19.038;2023-03-16T05:34:27;1.47;68.72
77519;DHT22;66629;47.346;19.038;2023-03-16T05:36:53;1.62;67.96
77519;DHT22;66629;47.346;19.038;2023-03-16T05:39:19;1.83;67.19
77519;DHT22;66629;47.346;19.038;2023-03-16T05:41:44;2.06;66.88
77519;DHT22;66629;47.346;19.038;2023-03-16T05:44:10;2.25;66.09
77519;DHT22;66629;47.346;19.038;2023-03-16T05:46:36;2.39;65.61
77519;DHT22;66629;47.346;19.038;2023-03-16T05:49:02;2.48;65.22
77519;DHT22;66629;47.346;19.038;2023-03-16T05:51:27;2.59;65.06
77519;DHT22;66629;47.346;19.038;2023-03-16T05:53:54;2.67;65.33
77519;DHT22;66629;47.346;19.038;2023-03-16T05:56:26;2.84;64.64
77519;DHT22;66629;47.346;19.038;2023-03-16T05:58:53;3.01;64.37
77519;DHT22;66629;47.346;19.038;2023-03-16T06:01:20;3.39;63.57
77519;DHT22;66629;47.346;19.038;2023-03-16T06:03:47;3.62;62.83
77519;DHT22;66629;47.346;19.038;2023-03-16T06:06:22;3.73;62.09
77519;DHT22;66629;47.346;19.038;2023-03-16T06:08:48;4.02;61.46
77519;DHT22;66629;47.346;19.038;2023-03-16T06:11:13;4.15;60.53
77519;DHT22;66629;47.346;19.038;2023-03-16T06:13:39;4.20;60.27
77519;DHT22;66629;47.346;19.038;2023-03-16T06:16:05;4.32;59.95
77519;DHT22;66629;47.346;19.038;2023-03-16T06:18:32;4.69;59.13
77519;DHT22;66629;47.346;19.038;2023-03-16T06:20:58;4.62;59.40
77519;DHT22;66629;47.346;19.038;2023-03-16T06:23:23;5.13;58.24
77519;DHT22;66629;47.346;19.038;2023-03-16T06:25:50;5.03;57.79
77519;DHT22;66629;47.346;19.038;2023-03-16T06:28:15;5.15;57.48
77519;DHT22;66629;47.346;19.038;2023-03-16T06:30:41;5.20;58.05
77519;DHT22;66629;47.346;19.038;2023-03-16T06:33:06;5.37;57.48
77519;DHT22;66629;47.346;19.038;2023-03-16T06:35:32;5.69;57.07
77519;DHT22;66629;47.346;19.038;2023-03-16T06:37:57;5.92;55.90
77519;DHT22;66629;47.346;19.038;2023-03-16T06:40:23;6.06;55.04
77519;DHT22;66629;47.346;19.038;2023-03-16T06:42:48;6.34;54.87
77519;DHT22;66629;47.346;19.038;2023-03-16T06:45:14;6.28;53.19
77519;DHT22;66629;47.346;19.038;2023-03-16T06:47:41;6.14;53.74
77519;DHT22;66629;47.346;19.038;2023-03-16T06:50:08;6.11;53.79
77519;DHT22;66629;47.346;19.038;2023-03-16T06:52:34;6.08;54.26
77519;DHT22;66629;47.346;19.038;2023-03-16T06:54:59;6.03;54.20
77519;DHT22;66629;47.346;19.038;2023-03-16T06:57:25;6.18;53.14
77519;DHT22;66629;47.346;19.038;2023-03-16T06:59:50;6.41;52.84
77519;DHT22;66629;47.346;19.038;2023-03-16T07:02:16;6.25;51.93
77519;DHT22;66629;47.346;19.038;2023-03-16T07:04:42;6.76;51.60
77519;DHT22;66629;47.346;19.038;2023-03-16T07:07:08;6.94;50.90
77519;DHT22;66629;47.346;19.038;2023-03-16T07:09:34;7.04;49.11
77519;DHT22;66629;47.346;19.038;2023-03-16T07:11:59;7.23;48.02
77519;DHT22;66629;47.346;19.038;2023-03-16T07:14:24;7.22;49.07
77519;DHT22;66629;47.346;19.038;2023-03-16T07:16:50;7.07;49.08
77519;DHT22;66629;47.346;19.038;2023-03-16T07:19:17;6.75;49.26
77519;DHT22;66629;47.346;19.038;2023-03-16T07:21:43;7.29;50.49
77519;DHT22;66629;47.346;19.038;2023-03-16T07:24:09;7.63;49.19
77519;DHT22;66629;47.346;19.038;2023-03-16T07:26:35;7.78;47.90
77519;DHT22;66629;47.346;19.038;2023-03-16T07:29:00;7.73;47.32
77519;DHT22;66629;47.346;19.038;2023-03-16T07:31:28;8.25;47.25
77519;DHT22;66629;47.346;19.038;2023-03-16T07:33:54;7.69;46.32
77519;DHT22;66629;47.346;19.038;2023-03-16T07:36:19;7.89;44.83
77519;DHT22;66629;47.346;19.038;2023-03-16T07:38:45;7.67;44.99
77519;DHT22;66629;47.346;19.038;2023-03-16T07:41:10;8.05;44.05
77519;DHT22;66629;47.346;19.038;2023-03-16T07:43:35;8.07;43.71
77519;DHT22;66629;47.346;19.038;2023-03-16T07:46:01;8.14;43.88
77519;DHT22;66629;47.346;19.038;2023-03-16T07:48:26;7.99;44.11
77519;DHT22;66629;47.346;19.038;2023-03-16T07:50:52;8.25;44.51
77519;DHT22;66629;47.346;19.038;2023-03-16T07:53:18;8.09;43.26
77519;DHT22;66629;47.346;19.038;2023-03-16T07:55:44;8.69;43.15
77519;DHT22;66629;47.346;19.038;2023-03-16T07:58:11;8.81;43.76
77519;DHT22;66629;47.346;19.038;2023-03-16T08:00:36;7.98;43.40
77519;DHT22;66629;47.346;19.038;2023-03-16T08:03:02;7.98;44.72
77519;DHT22;66629;47.346;19.038;2023-03-16T08:05:27;8.17;44.09
77519;DHT22;66629;47.346;19.038;2023-03-16T08:07:53;8.58;43.27
77519;DHT22;66629;47.346;19.038;2023-03-16T08:10:20;8.53;44.35
77519;DHT22;66629;47.346;19.038;2023-03-16T08:12:46;8.13;43.75
77519;DHT22;66629;47.346;19.038;2023-03-16T08:15:11;8.44;42.67
77519;DHT22;66629;47.346;19.038;2023-03-16T08:17:37;8.29;42.06
77519;DHT22;66629;47.346;19.038;2023-03-16T08:20:06;8.63;42.69
77519;DHT22;66629;47.346;19.038;2023-03-16T08:22:34;8.50;42.63
77519;DHT22;66629;47.346;19.038;2023-03-16T08:25:04;8.13;42.30
77519;DHT22;66629;47.346;19.038;2023-03-16T08:27:31;9.23;41.08
77519;DHT22;66629;47.346;19.038;2023-03-16T08:29:57;8.64;41.32
77519;DHT22;66629;47.346;19.038;2023-03-16T08:32:22;8.34;41.79
77519;DHT22;66629;47.346;19.038;2023-03-16T08:34:48;8.64;42.16
77519;DHT22;66629;47.346;19.038;2023-03-16T08:37:14;8.44;42.27
77519;DHT22;66629;47.346;19.038;2023-03-16T08:39:40;8.97;42.37
77519;DHT22;66629;47.346;19.038;2023-03-16T08:42:06;9.03;41.73
77519;DHT22;66629;47.346;19.038;2023-03-16T08:44:32;8.79;41.88
77519;DHT22;66629;47.346;19.038;2023-03-16T08:46:58;8.73;41.23
77519;DHT22;66629;47.346;19.038;2023-03-16T08:49:24;8.83;41.62
77519;DHT22;66629;47.346;19.038;2023-03-16T08:51:50;9.52;41.53
77519;DHT22;66629;47.346;19.038;2023-03-16T08:54:15;9.55;42.10
77519;DHT22;66629;47.346;19.038;2023-03-16T08:56:41;9.42;41.11
77519;DHT22;66629;47.346;19.038;2023-03-16T08:59:07;8.92;41.24
77519;DHT22;66629;47.346;19.038;2023-03-16T09:01:33;9.66;40.30
77519;DHT22;66629;47.346;19.038;2023-03-16T09:03:59;9.48;41.47
77519;DHT22;66629;47.346;19.038;2023-03-16T09:06:25;9.35;40.64
77519;DHT22;66629;47.346;19.038;2023-03-16T09:08:50;9.42;40.32
77519;DHT22;66629;47.346;19.038;2023-03-16T09:11:17;9.82;40.23
77519;DHT22;66629;47.346;19.038;2023-03-16T09:13:43;9.80;40.39
77519;DHT22;66629;47.346;19.038;2023-03-16T09:16:10;9.42;40.55
77519;DHT22;66629;47.346;19.038;2023-03-16T09:18:36;9.34;40.01
77519;DHT22;66629;47.346;19.038;2023-03-16T09:21:05;9.97;38.81
77519;DHT22;66629;47.346;19.038;2023-03-16T09:23:32;9.62;38.74
77519;DHT22;66629;47.346;19.038;2023-03-16T09:26:02;9.93;38.32
77519;DHT22;66629;47.346;19.038;2023-03-16T09:28:29;11.01;36.65
77519;DHT22;66629;47.346;19.038;2023-03-16T09:30:56;10.55;37.58
77519;DHT22;66629;47.346;19.038;2023-03-16T09:33:23;10.76;38.05
77519;DHT22;66629;47.346;19.038;2023-03-16T09:35:49;10.50;39.32
77519;DHT22;66629;47.346;19.038;2023-03-16T09:38:17;10.25;39.24
77519;DHT22;66629;47.346;19.038;2023-03-16T09:40:43;10.58;37.94
77519;DHT22;66629;47.346;19.038;2023-03-16T09:45:39;10.06;39.26
77519;DHT22;66629;47.346;19.038;2023-03-16T09:48:08;10.90;39.58
77519;DHT22;66629;47.346;19.038;2023-03-16T09:50:39;11.18;37.33
77519;DHT22;66629;47.346;19.038;2023-03-16T09:53:24;10.85;37.72
77519;DHT22;66629;47.346;19.038;2023-03-16T09:55:59;10.98;37.48
77519;DHT22;66629;47.346;19.038;2023-03-16T09:58:26;10.90;38.81
77519;DHT22;66629;47.346;19.038;2023-03-16T10:06:25;11.08;36.59
77519;DHT22;66629;47.346;19.038;2023-03-16T10:09:24;10.24;37.96
77519;DHT22;66629;47.346;19.038;2023-03-16T10:11:52;10.85;37.46
77519;DHT22;66629;47.346;19.038;2023-03-16T10:16:56;10.81;36.85
77519;DHT22;66629;47.346;19.038;2023-03-16T10:19:42;11.38;36.43
77519;DHT22;66629;47.346;19.038;2023-03-16T10:22:24;10.98;35.78
77519;DHT22;66629;47.346;19.038;2023-03-16T10:25:17;10.93;35.90
77519;DHT22;66629;47.346;19.038;2023-03-16T10:27:45;10.72;37.17
77519;DHT22;66629;47.346;19.038;2023-03-16T10:30:21;11.50;34.52
77519;DHT22;66629;47.346;19.038;2023-03-16T10:32:47;11.25;34.75
77519;DHT22;66629;47.346;19.038;2023-03-16T10:37:54;11.31;36.93
77519;DHT22;66629;47.346;19.038;2023-03-16T10:40:21;10.73;36.30
77519;DHT22;66629;47.346;19.038;2023-03-16T10:42:47;11.11;35.48
77519;DHT22;66629;47.346;19.038;2023-03-16T10:45:31;11.39;35.73
77519;DHT22;66629;47.346;19.038;2023-03-16T10:48:17;11.28;35.02
77519;DHT22;66629;47.346;19.038;2023-03-16T10:50:56;11.00;34.06
77519;DHT22;66629;47.346;19.038;2023-03-16T10:53:27;11.50;35.38
77519;DHT22;66629;47.346;19.038;2023-03-16T10:56:07;11.40;35.27
77519;DHT22;66629;47.346;19.038;2023-03-16T10:58:41;11.62;35.79
77519;DHT22;66629;47.346;19.038;2023-03-16T11:01:24;11.15;35.17
77519;DHT22;66629;47.346;19.038;2023-03-16T11:03:52;11.63;35.02
77519;DHT22;66629;47.346;19.038;2023-03-16T11:06:22;12.39;35.60
77519;DHT22;66629;47.346;19.038;2023-03-16T11:08:50;12.18;33.99
77519;DHT22;66629;47.346;19.038;2023-03-16T11:11:26;12.15;33.12
77519;DHT22;66629;47.346;19.038;2023-03-16T11:13:58;12.14;34.58
77519;DHT22;66629;47.346;19.038;2023-03-16T11:16:33;11.47;34.56
77519;DHT22;66629;47.346;19.038;2023-03-16T11:21:48;10.45;35.13
77519;DHT22;66629;47.346;19.038;2023-03-16T11:24:26;10.44;36.02
77519;DHT22;66629;47.346;19.038;2023-03-16T11:26:56;10.91;35.35
77519;DHT22;66629;47.346;19.038;2023-03-16T11:32:11;10.31;35.89
77519;DHT22;66629;47.346;19.038;2023-03-16T11:34:39;10.35;35.82
77519;DHT22;66629;47.346;19.038;2023-03-16T11:45:40;11.99;34.37
77519;DHT22;66629;47.346;19.038;2023-03-16T11:51:00;12.78;35.34
77519;DHT22;66629;47.346;19.038;2023-03-16T11:53:51;12.87;34.75
77519;DHT22;66629;47.346;19.038;2023-03-16T11:56:52;12.04;34.26
77519;DHT22;66629;47.346;19.038;2023-03-16T12:15:41;11.71;32.91
77519;DHT22;66629;47.346;19.038;2023-03-16T12:20:46;12.61;32.64
77519;DHT22;66629;47.346;19.038;2023-03-16T12:23:28;12.54;33.29
77519;DHT22;66629;47.346;19.038;2023-03-16T12:25:56;13.05;34.26
77519;DHT22;66629;47.346;19.038;2023-03-16T12:28:27;12.92;33.14
77519;DHT22;66629;47.346;19.038;2023-03-16T12:31:13;12.71;31.35
77519;DHT22;66629;47.346;19.038;2023-03-16T12:38:51;12.39;31.96
77519;DHT22;66629;47.346;19.038;2023-03-16T12:46:41;12.96;31.93
77519;DHT22;66629;47.346;19.038;2023-03-16T12:49:06;12.50;30.31
77519;DHT22;66629;47.346;19.038;2023-03-16T12:51:40;12.78;29.61
77519;DHT22;66629;47.346;19.038;2023-03-16T12:54:19;13.01;31.44
77519;DHT22;66629;47.346;19.038;2023-03-16T12:56:46;13.13;31.01
77519;DHT22;66629;47.346;19.038;2023-03-16T12:59:17;13.12;29.16
77519;DHT22;66629;47.346;19.038;2023-03-16T13:01:44;13.01;30.08
77519;DHT22;66629;47.346;19.038;2023-03-16T13:04:20;12.61;29.01
77519;DHT22;66629;47.346;19.038;2023-03-16T13:06:50;11.92;27.09
77519;DHT22;66629;47.346;19.038;2023-03-16T13:09:24;12.46;28.86
77519;DHT22;66629;47.346;19.038;2023-03-16T13:11:52;12.54;27.60
77519;DHT22;66629;47.346;19.038;2023-03-16T13:14:42;12.26;26.90
77519;DHT22;66629;47.346;19.038;2023-03-16T13:19:40;11.81;28.56
77519;DHT22;66629;47.346;19.038;2023-03-16T13:27:54;10.67;28.92
77519;DHT22;66629;47.346;19.038;2023-03-16T13:32:47;10.94;27.95
77519;DHT22;66629;47.346;19.038;2023-03-16T13:35:14;11.22;27.41
77519;DHT22;66629;47.346;19.038;2023-03-16T13:37:42;11.60;27.31
77519;DHT22;66629;47.346;19.038;2023-03-16T13:40:22;11.36;25.47
77519;DHT22;66629;47.346;19.038;2023-03-16T13:42:49;11.59;25.08
77519;DHT22;66629;47.346;19.038;2023-03-16T13:45:22;11.78;26.98
77519;DHT22;66629;47.346;19.038;2023-03-16T13:47:49;11.81;25.40
77519;DHT22;66629;47.346;19.038;2023-03-16T13:50:15;12.02;26.90
77519;DHT22;66629;47.346;19.038;2023-03-16T13:52:42;11.83;26.47
77519;DHT22;66629;47.346;19.038;2023-03-16T13:55:16;11.32;26.87
77519;DHT22;66629;47.346;19.038;2023-03-16T13:57:43;11.59;28.38
77519;DHT22;66629;47.346;19.038;2023-03-16T14:00:19;11.38;27.48
77519;DHT22;66629;47.346;19.038;2023-03-16T14:02:50;11.18;27.29
77519;DHT22;66629;47.346;19.038;2023-03-16T14:05:18;11.43;27.75
77519;DHT22;66629;47.346;19.038;2023-03-16T14:07:47;11.71;28.55
77519;DHT22;66629;47.346;19.038;2023-03-16T14:10:13;12.09;29.69
77519;DHT22;66629;47.346;19.038;2023-03-16T14:13:05;11.78;27.84
77519;DHT22;66629;47.346;19.038;2023-03-16T14:15:30;11.55;28.40
77519;DHT22;66629;47.346;19.038;2023-03-16T14:18:17;11.59;28.77
77519;DHT22;66629;47.346;19.038;2023-03-16T14:20:49;11.26;28.01
77519;DHT22;66629;47.346;19.038;2023-03-16T14:23:17;11.39;29.89
77519;DHT22;66629;47.346;19.038;2023-03-16T14:25:43;11.36;28.76
77519;DHT22;66629;47.346;19.038;2023-03-16T14:28:13;11.12;25.98
77519;DHT22;66629;47.346;19.038;2023-03-16T14:30:49;11.24;26.82
77519;DHT22;66629;47.346;19.038;2023-03-16T14:33:33;11.39;26.62
77519;DHT22;66629;47.346;19.038;2023-03-16T14:36:12;11.32;26.59
77519;DHT22;66629;47.346;19.038;2023-03-16T14:38:40;11.38;26.96
77519;DHT22;66629;47.346;19.038;2023-03-16T14:41:17;11.29;26.70
77519;DHT22;66629;47.346;19.038;2023-03-16T14:43:58;11.32;28.24
77519;DHT22;66629;47.346;19.038;2023-03-16T14:46:33;11.29;27.51
77519;DHT22;66629;47.346;19.038;2023-03-16T14:49:17;11.29;27.80
77519;DHT22;66629;47.346;19.038;2023-03-16T14:51:45;11.12;27.66
77519;DHT22;66629;47.346;19.038;2023-03-16T14:54:16;10.89;28.55
77519;DHT22;66629;47.346;19.038;2023-03-16T14:56:48;10.60;28.34
77519;DHT22;66629;47.346;19.038;2023-03-16T14:59:14;10.72;29.06
77519;DHT22;66629;47.346;19.038;2023-03-16T15:01:40;10.81;29.03
77519;DHT22;66629;47.346;19.038;2023-03-16T15:04:06;10.84;28.81
77519;DHT22;66629;47.346;19.038;2023-03-16T15:06:32;10.69;28.46
77519;DHT22;66629;47.346;19.038;2023-03-16T15:08:58;10.55;28.62
77519;DHT22;66629;47.346;19.038;2023-03-16T15:11:24;10.60;28.03
77519;DHT22;66629;47.346;19.038;2023-03-16T15:13:50;10.77;28.60
77519;DHT22;66629;47.346;19.038;2023-03-16T15:16:16;10.72;27.91
77519;DHT22;66629;47.346;19.038;2023-03-16T15:18:41;10.65;27.26
77519;DHT22;66629;47.346;19.038;2023-03-16T15:21:12;10.69;27.33
77519;DHT22;66629;47.346;19.038;2023-03-16T15:23:42;10.59;27.40
77519;DHT22;66629;47.346;19.038;2023-03-16T15:26:12;10.53;25.63
77519;DHT22;66629;47.346;19.038;2023-03-16T15:28:38;10.56;27.41
77519;DHT22;66629;47.346;19.038;2023-03-16T15:31:04;10.49;26.14
77519;DHT22;66629;47.346;19.038;2023-03-16T15:33:30;10.52;26.31
77519;DHT22;66629;47.346;19.038;2023-03-16T15:35:57;10.42;26.23
77519;DHT22;66629;47.346;19.038;2023-03-16T15:40:49;10.37;28.59
77519;DHT22;66629;47.346;19.038;2023-03-16T15:43:19;10.38;29.15
77519;DHT22;66629;47.346;19.038;2023-03-16T15:45:45;10.30;28.78
77519;DHT22;66629;47.346;19.038;2023-03-16T15:48:11;10.28;29.18
77519;DHT22;66629;47.346;19.038;2023-03-16T15:50:38;10.21;28.03
77519;DHT22;66629;47.346;19.038;2023-03-16T15:53:08;10.17;29.33
77519;DHT22;66629;47.346;19.038;2023-03-16T15:55:37;10.14;29.31
77519;DHT22;66629;47.346;19.038;2023-03-16T15:58:05;10.11;29.99
77519;DHT22;66629;47.346;19.038;2023-03-16T16:00:36;10.10;29.48
77519;DHT22;66629;47.346;19.038;2023-03-16T16:03:04;9.97;28.66
77519;DHT22;66629;47.346;19.038;2023-03-16T16:05:30;9.94;28.97
77519;DHT22;66629;47.346;19.038;2023-03-16T16:07:56;9.82;30.66
77519;DHT22;66629;47.346;19.038;2023-03-16T16:10:25;9.79;28.02
77519;DHT22;66629;47.346;19.038;2023-03-16T16:12:52;9.73;28.29
77519;DHT22;66629;47.346;19.038;2023-03-16T16:15:30;9.68;28.39
77519;DHT22;66629;47.346;19.038;2023-03-16T16:17:58;9.59;29.21
77519;DHT22;66629;47.346;19.038;2023-03-16T16:20:29;9.56;28.66
77519;DHT22;66629;47.346;19.038;2023-03-16T16:22:57;9.51;27.77
77519;DHT22;66629;47.346;19.038;2023-03-16T16:25:33;9.47;28.47
77519;DHT22;66629;47.346;19.038;2023-03-16T16:27:59;9.42;27.63
77519;DHT22;66629;47.346;19.038;2023-03-16T16:30:27;9.31;27.64
77519;DHT22;66629;47.346;19.038;2023-03-16T16:32:54;9.26;28.05
77519;DHT22;66629;47.346;19.038;2023-03-16T16:35:23;9.17;29.28
77519;DHT22;66629;47.346;19.038;2023-03-16T16:37:49;9.10;30.42
77519;DHT22;66629;47.346;19.038;2023-03-16T16:40:19;9.06;31.11
77519;DHT22;66629;47.346;19.038;2023-03-16T16:42:47;8.97;31.30
77519;DHT22;66629;47.346;19.038;2023-03-16T16:45:15;8.86;32.72
77519;DHT22;66629;47.346;19.038;2023-03-16T16:47:42;8.75;32.47
77519;DHT22;66629;47.346;19.038;2023-03-16T16:50:27;8.75;33.47